Time;durP1;ratioP1;P1;durP2;ratioP2;P2;SDS_P1;SDS_P2;PMS_P1;PMS_P2;Temp;Humidity;BMP_temperature;BMP_pressure;BME280_temperature;BME280_humidity;BME280_pressure;Samples;Min_cycle;Max_cycle;Signal;HPM_P1;HPM_P2
2023/12/26 00:01:37;;;;;;;0.60;0.60;;;;;;;8.68;69.84;98261.22;4865106;29;20070;-80
2023/12/26 00:04:02;;;;;;;0.60;0.60;;;;;;;8.60;70.07;98248.53;4862395;29;20048;-80
2023/12/26 00:06:28;;;;;;;0.70;0.70;;;;;;;8.65;70.15;98246.91;4864326;29;22486;-81
2023/12/26 00:08:53;;;;;;;0.60;0.60;;;;;;;8.62;69.75;98239.72;4865590;29;20101;-80
2023/12/26 00:11:19;;;;;;;0.60;0.60;;;;;;;8.69;69.50;98240.84;4865916;29;20853;-81
2023/12/26 00:13:44;;;;;;;0.70;0.70;;;;;;;8.58;70.27;98242.28;4863789;29;20048;-80
2023/12/26 00:16:10;;;;;;;0.70;0.70;;;;;;;8.58;69.97;98243.19;4864763;29;20127;-79
2023/12/26 00:18:35;;;;;;;0.68;0.68;;;;;;;8.66;69.80;98241.63;4868429;29;20201;-80
2023/12/26 00:21:01;;;;;;;0.70;0.70;;;;;;;8.67;69.91;98231.88;4880363;29;20044;-80
2023/12/26 00:23:27;;;;;;;0.70;0.70;;;;;;;8.55;70.05;98239.53;4880665;29;20492;-80
2023/12/26 00:25:52;;;;;;;0.55;0.55;;;;;;;8.59;69.98;98230.78;4881278;29;20538;-79
2023/12/26 00:28:19;;;;;;;0.60;0.60;;;;;;;8.57;70.15;98233.38;4866957;29;20052;-79
2023/12/26 00:30:45;;;;;;;0.70;0.70;;;;;;;8.49;70.58;98237.59;4871646;29;20080;-80
2023/12/26 00:33:11;;;;;;;0.60;0.60;;;;;;;8.59;70.33;98241.44;4862223;29;20056;-80
2023/12/26 00:35:37;;;;;;;0.60;0.60;;;;;;;8.52;70.48;98237.66;4866241;29;20040;-79
2023/12/26 00:38:02;;;;;;;0.60;0.60;;;;;;;8.54;69.74;98228.00;4866271;29;20050;-80
2023/12/26 00:40:28;;;;;;;0.70;0.70;;;;;;;8.60;69.83;98237.91;4830986;29;1115133;-80
2023/12/26 00:42:54;;;;;;;0.70;0.70;;;;;;;8.57;69.75;98238.69;4881312;29;20052;-80
2023/12/26 00:45:25;;;;;;;0.70;0.70;;;;;;;8.48;70.59;98230.50;4867256;29;20044;-78
2023/12/26 00:47:50;;;;;;;0.60;0.60;;;;;;;8.38;70.37;98239.91;4864709;29;20503;-79
2023/12/26 00:50:16;;;;;;;0.70;0.70;;;;;;;8.34;71.09;98237.13;4867863;29;20041;-78
2023/12/26 00:52:43;;;;;;;0.80;0.80;;;;;;;8.52;70.04;98248.31;4861678;29;20788;-78
2023/12/26 00:55:09;;;;;;;0.70;0.70;;;;;;;8.41;70.69;98232.03;4864703;29;20052;-79
2023/12/26 00:57:35;;;;;;;0.70;0.70;;;;;;;8.42;70.66;98233.84;4868016;29;20045;-79
2023/12/26 01:00:01;;;;;;;0.70;0.70;;;;;;;8.47;70.23;98236.63;4868925;29;20057;-80
2023/12/26 01:02:26;;;;;;;0.70;0.70;;;;;;;8.48;70.34;98241.13;4850804;29;20048;-79
2023/12/26 01:04:52;;;;;;;0.70;0.70;;;;;;;8.45;70.36;98241.91;4866739;29;20119;-79
2023/12/26 01:07:18;;;;;;;0.70;0.70;;;;;;;8.31;71.28;98237.91;4866201;29;20065;-79
2023/12/26 01:09:43;;;;;;;0.70;0.70;;;;;;;8.34;71.14;98234.47;4859600;29;20059;-78
2023/12/26 01:12:09;;;;;;;0.70;0.70;;;;;;;8.25;71.83;98236.84;4864916;29;20045;-79
2023/12/26 01:14:35;;;;;;;0.80;0.80;;;;;;;8.24;71.73;98241.25;4868230;29;20036;-79
2023/12/26 01:17:01;;;;;;;0.70;0.70;;;;;;;8.17;72.27;98250.78;4860105;29;20037;-78
2023/12/26 01:19:27;;;;;;;0.70;0.70;;;;;;;8.26;72.05;98246.63;4864187;29;20853;-79
2023/12/26 01:21:52;;;;;;;0.60;0.60;;;;;;;8.17;72.13;98250.78;4867956;29;20044;-79
2023/12/26 01:24:18;;;;;;;0.70;0.70;;;;;;;8.23;72.31;98250.06;4878709;29;20500;-78
2023/12/26 01:26:44;;;;;;;0.60;0.60;;;;;;;8.22;71.68;98259.78;4866700;29;20049;-79
2023/12/26 01:29:10;;;;;;;0.60;0.60;;;;;;;8.29;72.39;98257.31;4878954;29;20476;-79
2023/12/26 01:31:36;;;;;;;0.60;0.60;;;;;;;8.31;72.38;98261.84;4866195;29;20460;-80
2023/12/26 01:34:03;;;;;;;0.70;0.70;;;;;;;8.29;72.35;98262.63;4867465;29;20097;-80
2023/12/26 01:36:28;;;;;;;0.70;0.70;;;;;;;8.17;72.96;98273.78;4867250;29;20190;-79
2023/12/26 01:38:55;;;;;;;0.80;0.80;;;;;;;8.09;73.11;98275.31;4860082;29;20045;-80
2023/12/26 01:41:20;;;;;;;0.70;0.70;;;;;;;8.08;73.34;98268.19;4881059;29;20574;-79
2023/12/26 01:43:46;;;;;;;0.60;0.60;;;;;;;7.98;73.79;98273.22;4859084;29;20061;-80
2023/12/26 01:46:12;;;;;;;0.70;0.70;;;;;;;7.98;73.49;98282.94;4881387;29;20428;-79
2023/12/26 01:48:39;;;;;;;0.75;0.75;;;;;;;8.12;73.16;98286.03;4868762;29;20543;-79
2023/12/26 01:51:06;;;;;;;0.70;0.70;;;;;;;8.14;73.05;98286.97;4878575;29;20045;-80
2023/12/26 01:53:34;;;;;;;0.70;0.70;;;;;;;8.11;73.37;98293.13;4861611;29;20049;-79
2023/12/26 01:55:59;;;;;;;;;;;;;;;8.18;72.66;98288.88;4869887;29;20369;-79
2023/12/26 01:58:25;;;;;;;0.80;0.80;;;;;;;8.08;72.80;98293.00;4869521;29;19931;-80
2023/12/26 02:00:52;;;;;;;0.70;0.70;;;;;;;8.13;72.83;98286.06;4866814;29;20100;-79
2023/12/26 02:03:17;;;;;;;0.70;0.70;;;;;;;8.13;72.46;98294.03;4869457;29;20044;-79
2023/12/26 02:05:44;;;;;;;0.68;0.68;;;;;;;8.15;72.81;98284.38;4866268;29;20052;-79
2023/12/26 02:08:13;;;;;;;0.70;0.70;;;;;;;8.01;73.35;98290.13;4870763;29;20067;-80
2023/12/26 02:10:38;;;;;;;0.70;0.70;;;;;;;8.15;72.88;98286.16;4867732;29;20480;-79
2023/12/26 02:13:04;;;;;;;0.70;0.70;;;;;;;8.07;73.47;98283.22;4868551;29;20040;-78
2023/12/26 02:15:29;;;;;;;0.70;0.70;;;;;;;8.05;73.54;98287.63;4869622;29;20716;-79
2023/12/26 02:17:56;;;;;;;0.70;0.70;;;;;;;8.03;73.66;98291.97;4868641;29;20067;-79
2023/12/26 02:20:22;;;;;;;0.70;0.70;;;;;;;8.00;73.81;98299.84;4867146;29;20032;-80
2023/12/26 02:22:47;;;;;;;0.70;0.70;;;;;;;8.02;74.14;98299.88;4882491;29;20068;-80
2023/12/26 02:25:13;;;;;;;0.70;0.70;;;;;;;7.98;74.10;98299.78;4882644;29;20047;-80
2023/12/26 02:27:39;;;;;;;0.70;0.70;;;;;;;7.91;74.03;98300.44;4867629;29;20924;-79
2023/12/26 02:30:09;;;;;;;0.77;0.77;;;;;;;7.91;74.01;98307.53;4882976;29;20133;-79
2023/12/26 02:32:37;;;;;;;0.70;0.70;;;;;;;7.86;74.64;98304.72;4883203;29;20040;-79
2023/12/26 02:35:05;;;;;;;0.70;0.70;;;;;;;7.90;74.34;98303.94;4883378;29;20048;-81
2023/12/26 02:37:31;;;;;;;0.70;0.70;;;;;;;7.86;74.73;98310.03;4869993;29;20041;-80
2023/12/26 02:39:57;;;;;;;0.80;0.80;;;;;;;7.96;74.48;98312.13;4883555;29;20048;-79
2023/12/26 02:42:24;;;;;;;0.68;0.68;;;;;;;7.95;73.87;98312.97;4869307;29;20079;-80
2023/12/26 02:44:50;;;;;;;0.70;0.70;;;;;;;7.91;74.43;98324.34;4867968;29;20033;-80
2023/12/26 02:47:16;;;;;;;0.70;0.70;;;;;;;7.90;74.61;98317.22;4869565;29;20045;-79
2023/12/26 02:49:42;;;;;;;0.70;0.70;;;;;;;7.82;74.67;98318.72;4881024;29;20096;-80
2023/12/26 02:52:08;;;;;;;0.70;0.70;;;;;;;7.80;74.45;98317.75;4883945;29;20506;-80
2023/12/26 02:54:35;;;;;;;0.70;0.70;;;;;;;7.80;74.38;98327.50;4851610;29;20053;-80
2023/12/26 02:57:00;;;;;;;0.80;0.80;;;;;;;7.72;74.98;98321.94;4883152;29;20036;-80
2023/12/26 02:59:28;;;;;;;0.75;0.75;;;;;;;7.60;74.88;98327.72;4852759;29;20408;-80
2023/12/26 03:01:54;;;;;;;0.70;0.70;;;;;;;7.60;75.26;98325.06;4866410;29;20052;-80
2023/12/26 03:04:20;;;;;;;0.70;0.70;;;;;;;7.76;74.86;98329.16;4868236;29;20127;-81
2023/12/26 03:06:45;;;;;;;0.60;0.60;;;;;;;7.67;74.56;98323.53;4868188;29;20310;-80
2023/12/26 03:09:11;;;;;;;0.70;0.70;;;;;;;7.71;74.43;98326.34;4868100;29;20041;-79
2023/12/26 03:11:37;;;;;;;0.70;0.70;;;;;;;7.72;74.42;98333.47;4880933;29;20075;-79
2023/12/26 03:14:02;;;;;;;0.70;0.70;;;;;;;7.87;73.83;98333.06;4870216;29;20041;-80
2023/12/26 03:16:28;;;;;;;0.70;0.70;;;;;;;7.61;74.49;98328.63;4867106;29;20666;-81
2023/12/26 03:18:54;;;;;;;0.60;0.60;;;;;;;7.60;74.61;98325.06;4868420;29;20156;-80
2023/12/26 03:21:20;;;;;;;0.70;0.70;;;;;;;7.84;73.74;98325.00;4881177;29;20541;-80
2023/12/26 03:23:46;;;;;;;0.70;0.70;;;;;;;7.71;73.97;98331.66;4883439;29;20080;-79
2023/12/26 03:26:12;;;;;;;0.77;0.77;;;;;;;7.80;73.33;98317.75;4862478;29;20480;-80
2023/12/26 03:28:37;;;;;;;0.70;0.70;;;;;;;7.80;73.11;98324.81;4869832;29;20044;-81
2023/12/26 03:31:04;;;;;;;0.70;0.70;;;;;;;7.81;73.11;98316.94;4869213;29;20036;-80
2023/12/26 03:33:30;;;;;;;0.70;0.70;;;;;;;7.78;73.15;98316.81;4863246;29;20037;-79
2023/12/26 03:35:57;;;;;;;0.70;0.70;;;;;;;7.67;73.36;98321.78;4865839;29;20051;-79
2023/12/26 03:38:22;;;;;;;0.70;0.70;;;;;;;7.82;72.57;98317.84;4866777;29;20041;-79
2023/12/26 03:40:48;;;;;;;0.70;0.70;;;;;;;7.89;72.08;98318.06;4881698;29;20443;-80
2023/12/26 03:43:16;;;;;;;0.70;0.70;;;;;;;7.81;71.88;98323.97;4862743;29;20056;-80
2023/12/26 03:45:43;;;;;;;0.70;0.70;;;;;;;7.71;72.15;98329.00;4863121;29;20775;-81
2023/12/26 03:48:09;;;;;;;0.70;0.70;;;;;;;7.71;72.42;98338.69;4868359;29;20107;-80
2023/12/26 03:50:34;;;;;;;0.70;0.70;;;;;;;7.71;71.92;98331.66;4865672;29;20053;-80
2023/12/26 03:53:00;;;;;;;0.70;0.70;;;;;;;7.85;70.91;98326.78;4860959;29;20413;-80
2023/12/26 03:55:25;;;;;;;0.70;0.70;;;;;;;8.09;69.27;98336.41;4865922;29;20037;-80
2023/12/26 03:57:51;;;;;;;0.70;0.70;;;;;;;8.14;69.12;98338.34;4882683;29;20092;-79
2023/12/26 04:00:16;;;;;;;0.70;0.70;;;;;;;8.05;69.90;98327.47;4880994;29;20168;-79
2023/12/26 04:02:43;;;;;;;0.80;0.80;;;;;;;8.08;69.80;98332.84;4871287;29;20028;-79
2023/12/26 04:05:12;;;;;;;0.60;0.60;;;;;;;8.03;70.24;98325.59;4880674;29;20043;-78
2023/12/26 04:07:38;;;;;;;0.60;0.60;;;;;;;7.97;70.24;98327.19;4869302;29;20029;-80
2023/12/26 04:10:05;;;;;;;0.70;0.70;;;;;;;7.86;70.62;98325.97;4883009;29;20032;-79
2023/12/26 04:12:32;;;;;;;0.70;0.70;;;;;;;8.01;69.78;98327.31;4853641;29;20040;-80
2023/12/26 04:14:57;;;;;;;0.70;0.70;;;;;;;8.08;69.65;98318.66;4882875;29;20039;-79
2023/12/26 04:17:23;;;;;;;0.70;0.70;;;;;;;8.02;70.15;98324.69;4868402;29;20041;-79
2023/12/26 04:19:48;;;;;;;0.70;0.70;;;;;;;7.98;70.10;98329.00;4883119;29;20058;-79
2023/12/26 04:22:14;;;;;;;0.70;0.70;;;;;;;8.02;70.06;98323.78;4870484;29;20052;-80
2023/12/26 04:24:40;;;;;;;0.70;0.70;;;;;;;8.05;69.79;98334.50;4868022;29;20439;-80
2023/12/26 04:27:06;;;;;;;0.70;0.70;;;;;;;8.04;69.78;98325.63;4883118;29;20040;-79
2023/12/26 04:29:32;;;;;;;0.70;0.70;;;;;;;8.08;69.22;98322.22;4867325;29;20047;-79
2023/12/26 04:31:58;;;;;;;0.70;0.70;;;;;;;8.10;69.30;98324.97;4866264;29;20041;-80
2023/12/26 04:34:23;;;;;;;0.70;0.70;;;;;;;8.06;69.33;98328.38;4848792;29;20041;-80
2023/12/26 04:36:49;;;;;;;0.70;0.70;;;;;;;8.15;68.64;98326.00;4868701;29;20049;-80
2023/12/26 04:39:14;;;;;;;0.70;0.70;;;;;;;8.11;69.02;98329.41;4881297;29;20089;-80
2023/12/26 04:41:40;;;;;;;0.70;0.70;;;;;;;8.23;68.23;98332.44;4882696;29;20072;-80
2023/12/26 04:44:05;;;;;;;0.60;0.60;;;;;;;8.21;68.66;98331.50;4871216;29;20048;-79
2023/12/26 04:46:31;;;;;;;0.70;0.70;;;;;;;8.15;68.31;98331.31;4880734;29;20093;-79
2023/12/26 04:48:57;;;;;;;0.60;0.60;;;;;;;8.22;68.31;98346.59;4881390;29;20033;-79
2023/12/26 04:51:22;;;;;;;0.70;0.70;;;;;;;8.12;68.60;98344.50;4861938;29;20053;-79
2023/12/26 04:53:49;;;;;;;0.70;0.70;;;;;;;8.20;67.92;98345.66;4861369;29;20048;-79
2023/12/26 04:56:19;;;;;;;0.80;0.80;;;;;;;8.15;68.25;98340.19;4881458;29;20040;-79
2023/12/26 04:58:46;;;;;;;0.70;0.70;;;;;;;8.23;68.46;98332.44;4867691;29;20046;-79
2023/12/26 05:01:12;;;;;;;0.70;0.70;;;;;;;8.16;68.18;98334.00;4880987;29;20431;-79
2023/12/26 05:03:38;;;;;;;0.70;0.70;;;;;;;8.11;68.33;98340.94;4862322;29;20480;-79
2023/12/26 05:06:04;;;;;;;0.70;0.70;;;;;;;8.20;68.25;98341.25;4880725;29;20124;-79
2023/12/26 05:08:30;;;;;;;0.63;0.63;;;;;;;8.28;67.49;98337.91;4867710;29;20755;-78
2023/12/26 05:10:56;;;;;;;0.70;0.70;;;;;;;8.21;68.13;98344.78;4860725;29;20033;-78
2023/12/26 05:13:22;;;;;;;0.70;0.70;;;;;;;8.27;67.83;98341.41;4866412;29;20159;-79
2023/12/26 05:15:48;;;;;;;0.70;0.70;;;;;;;8.37;66.83;98339.13;4869368;29;20175;-78
2023/12/26 05:18:14;;;;;;;0.80;0.80;;;;;;;8.39;67.25;98340.09;4865276;29;20175;-79
2023/12/26 05:20:40;;;;;;;0.70;0.70;;;;;;;8.30;67.79;98333.56;4866301;29;20382;-78
2023/12/26 05:23:05;;;;;;;0.70;0.70;;;;;;;8.33;67.48;98333.63;4866012;29;20072;-79
2023/12/26 05:25:31;;;;;;;0.70;0.70;;;;;;;8.27;67.45;98337.00;4880955;29;20176;-79
2023/12/26 05:27:56;;;;;;;0.70;0.70;;;;;;;8.43;67.12;98338.41;4863158;29;20036;-78
2023/12/26 05:30:22;;;;;;;0.70;0.70;;;;;;;8.45;67.27;98345.59;4880652;29;20707;-79
2023/12/26 05:32:48;;;;;;;0.70;0.70;;;;;;;8.45;67.27;98342.94;4866426;29;20041;-78
2023/12/26 05:35:16;;;;;;;;;;;;;;;8.51;66.58;98352.84;4872529;29;20288;-78
2023/12/26 05:37:41;;;;;;;0.75;0.75;;;;;;;8.55;66.40;98356.53;4884996;29;19926;-78
2023/12/26 05:40:07;;;;;;;0.70;0.70;;;;;;;8.64;65.98;98362.13;4881906;29;20052;-78
2023/12/26 05:42:33;;;;;;;0.70;0.70;;;;;;;8.53;66.63;98366.19;4883330;29;20572;-77
2023/12/26 05:44:58;;;;;;;0.70;0.70;;;;;;;8.52;66.13;98361.72;4869452;29;20563;-79
2023/12/26 05:47:24;;;;;;;0.80;0.80;;;;;;;8.47;66.32;98365.16;4867936;29;20076;-79
2023/12/26 05:49:49;;;;;;;0.80;0.80;;;;;;;8.45;66.59;98377.50;4865271;29;20076;-79
2023/12/26 05:52:15;;;;;;;0.70;0.70;;;;;;;8.62;65.42;98379.78;4852243;29;20048;-79
2023/12/26 05:54:40;;;;;;;0.70;0.70;;;;;;;8.48;66.17;98382.03;4869219;29;20044;-80
2023/12/26 05:57:06;;;;;;;0.60;0.60;;;;;;;8.42;66.94;98382.72;4884020;29;20562;-79
2023/12/26 05:59:31;;;;;;;0.70;0.70;;;;;;;8.43;66.94;98381.88;4870773;29;20084;-79
2023/12/26 06:01:57;;;;;;;0.63;0.63;;;;;;;8.42;66.85;98381.81;4869060;29;21906;-80
2023/12/26 06:04:22;;;;;;;0.70;0.70;;;;;;;8.35;67.10;98371.81;4883272;29;20104;-79
2023/12/26 06:06:48;;;;;;;0.70;0.70;;;;;;;8.55;66.27;98362.75;4852334;29;20178;-79
2023/12/26 06:09:14;;;;;;;0.60;0.60;;;;;;;8.47;66.79;98373.13;4881406;29;20041;-79
2023/12/26 06:11:40;;;;;;;0.68;0.68;;;;;;;8.33;67.35;98376.16;4883112;29;20581;-80
2023/12/26 06:14:07;;;;;;;0.70;0.70;;;;;;;8.26;67.03;98364.44;4869044;29;20037;-79
2023/12/26 06:16:33;;;;;;;0.70;0.70;;;;;;;8.29;66.84;98377.84;4867721;29;20037;-78
2023/12/26 06:18:58;;;;;;;0.70;0.70;;;;;;;8.21;67.10;98372.25;4869409;29;20045;-79
2023/12/26 06:21:24;;;;;;;0.70;0.70;;;;;;;8.01;67.85;98377.78;4882352;29;20041;-80
2023/12/26 06:23:51;;;;;;;0.70;0.70;;;;;;;7.92;68.42;98378.38;4868805;29;20128;-80
2023/12/26 06:26:17;;;;;;;0.70;0.70;;;;;;;7.78;69.10;98385.88;4882817;29;20041;-79
2023/12/26 06:28:43;;;;;;;0.70;0.70;;;;;;;7.72;69.39;98381.25;4881435;29;20038;-79
2023/12/26 06:31:14;;;;;;;0.60;0.60;;;;;;;7.72;69.41;98381.25;4869944;29;20044;-79
2023/12/26 06:33:39;;;;;;;0.70;0.70;;;;;;;7.61;69.98;98384.38;4884905;29;20056;-78
2023/12/26 06:36:06;;;;;;;0.73;0.73;;;;;;;7.56;70.49;98388.63;4863427;29;20050;-79
2023/12/26 06:38:31;;;;;;;0.77;0.77;;;;;;;7.62;70.05;98394.16;4872458;29;20037;-78
2023/12/26 06:40:57;;;;;;;0.70;0.70;;;;;;;7.56;70.24;98394.81;4882969;29;20479;-79
2023/12/26 06:43:22;;;;;;;0.60;0.60;;;;;;;7.60;70.21;98393.19;4863444;29;20044;-79
2023/12/26 06:45:48;;;;;;;0.70;0.70;;;;;;;7.68;70.17;98391.72;4883228;29;20047;-79
2023/12/26 06:48:13;;;;;;;0.70;0.70;;;;;;;7.52;70.92;98384.97;4885035;29;20440;-78
2023/12/26 06:50:40;;;;;;;0.70;0.70;;;;;;;7.39;71.65;98396.91;4883106;29;20042;-78
2023/12/26 06:53:05;;;;;;;0.70;0.70;;;;;;;7.30;72.00;98403.63;4881243;29;20521;-77
2023/12/26 06:55:31;;;;;;;0.80;0.80;;;;;;;7.22;72.33;98408.63;4855128;29;20801;-78
2023/12/26 06:57:56;;;;;;;0.70;0.70;;;;;;;7.25;71.88;98419.38;4871416;29;20507;-79
2023/12/26 07:00:24;;;;;;;0.80;0.80;;;;;;;7.42;71.22;98423.53;4881944;29;20449;-80
2023/12/26 07:02:49;;;;;;;0.80;0.80;;;;;;;7.52;70.83;98422.13;4862956;29;20052;-80
2023/12/26 07:05:15;;;;;;;0.70;0.70;;;;;;;7.63;70.66;98425.16;4852228;29;20041;-79
2023/12/26 07:07:41;;;;;;;0.60;0.60;;;;;;;7.56;70.94;98426.69;4865801;29;20048;-79
2023/12/26 07:10:06;;;;;;;0.80;0.80;;;;;;;7.55;71.13;98426.63;4867857;29;20032;-79
2023/12/26 07:12:32;;;;;;;0.70;0.70;;;;;;;7.53;70.83;98428.34;4881509;29;20037;-79
2023/12/26 07:14:57;;;;;;;0.75;0.75;;;;;;;7.55;70.58;98430.19;4868456;29;20045;-79
2023/12/26 07:17:23;;;;;;;0.70;0.70;;;;;;;7.60;70.93;98435.66;4868137;29;20603;-78
2023/12/26 07:19:48;;;;;;;0.80;0.80;;;;;;;7.61;70.50;98433.06;4868889;29;20040;-79
2023/12/26 07:22:14;;;;;;;0.70;0.70;;;;;;;7.68;70.48;98436.84;4869495;29;20048;-78
2023/12/26 07:24:39;;;;;;;0.70;0.70;;;;;;;7.67;70.25;98435.97;4884065;29;20537;-78
2023/12/26 07:27:05;;;;;;;0.75;0.75;;;;;;;7.66;70.76;98443.84;4883046;29;20078;-80
2023/12/26 07:29:30;;;;;;;0.70;0.70;;;;;;;7.74;70.17;98447.69;4870170;29;20963;-80
2023/12/26 07:31:56;;;;;;;0.70;0.70;;;;;;;7.74;70.73;98455.66;4867074;29;20048;-78
2023/12/26 07:34:21;;;;;;;0.60;0.60;;;;;;;7.79;69.81;98461.13;4865448;29;20495;-78
2023/12/26 07:36:47;;;;;;;0.60;0.60;;;;;;;7.72;70.21;98467.97;4867463;29;20037;-79
2023/12/26 07:39:12;;;;;;;0.70;0.70;;;;;;;7.76;70.12;98477.88;4868676;29;20049;-80
2023/12/26 07:41:38;;;;;;;0.70;0.70;;;;;;;7.81;70.07;98472.69;4866237;29;20033;-79
2023/12/26 07:44:03;;;;;;;0.70;0.70;;;;;;;7.82;69.99;98483.41;4866154;29;20048;-81
2023/12/26 07:46:29;;;;;;;0.70;0.70;;;;;;;7.89;69.89;98484.50;4861417;29;20048;-80
2023/12/26 07:48:54;;;;;;;0.70;0.70;;;;;;;7.84;69.72;98489.66;4864882;29;20041;-81
2023/12/26 07:51:20;;;;;;;0.60;0.60;;;;;;;7.83;69.90;98490.50;4867386;29;20069;-80
2023/12/26 07:53:47;;;;;;;0.70;0.70;;;;;;;7.91;69.39;98491.69;4863400;29;20093;-79
2023/12/26 07:56:12;;;;;;;;;;;;;;;7.88;69.41;98503.94;4869277;29;20060;-80
2023/12/26 07:58:38;;;;;;;0.80;0.80;;;;;;;7.94;69.44;98506.81;4868097;29;19919;-79
2023/12/26 08:01:04;;;;;;;0.70;0.70;;;;;;;8.01;69.25;98505.31;4861357;29;20045;-79
2023/12/26 08:03:30;;;;;;;0.80;0.80;;;;;;;8.04;69.00;98506.28;4880381;29;20083;-79
2023/12/26 08:05:56;;;;;;;0.70;0.70;;;;;;;8.14;68.39;98515.50;4869140;29;20395;-79
2023/12/26 08:08:22;;;;;;;0.70;0.70;;;;;;;8.31;68.20;98506.34;4866474;29;20412;-79
2023/12/26 08:10:48;;;;;;;0.70;0.70;;;;;;;8.39;67.40;98507.56;4866646;29;20033;-79
2023/12/26 08:13:13;;;;;;;0.70;0.70;;;;;;;8.51;67.16;98508.81;4866773;29;20045;-79
2023/12/26 08:15:39;;;;;;;0.70;0.70;;;;;;;8.53;66.85;98508.03;4866104;29;20033;-79
2023/12/26 08:18:05;;;;;;;0.70;0.70;;;;;;;8.51;66.68;98512.38;4869082;29;20119;-79
2023/12/26 08:20:36;;;;;;;0.70;0.70;;;;;;;8.61;66.29;98518.91;4883239;29;20128;-79
2023/12/26 08:23:02;;;;;;;0.70;0.70;;;;;;;8.57;66.37;98515.25;4865648;29;20072;-79
2023/12/26 08:25:28;;;;;;;0.80;0.80;;;;;;;8.62;66.61;98520.72;4867351;29;20127;-79
2023/12/26 08:27:54;;;;;;;0.70;0.70;;;;;;;8.64;66.73;98525.25;4867271;29;20932;-79
2023/12/26 08:30:20;;;;;;;0.70;0.70;;;;;;;8.62;66.67;98528.69;4881350;29;20729;-79
2023/12/26 08:32:45;;;;;;;0.70;0.70;;;;;;;8.74;65.98;98530.00;4881373;29;20055;-79
2023/12/26 08:35:11;;;;;;;0.70;0.70;;;;;;;8.83;65.56;98524.09;4879616;29;20109;-79
2023/12/26 08:37:36;;;;;;;0.68;0.68;;;;;;;8.92;65.73;98519.06;4883174;29;20048;-79
2023/12/26 08:40:03;;;;;;;0.63;0.63;;;;;;;8.91;65.71;98537.63;4881264;29;20519;-79
2023/12/26 08:42:28;;;;;;;0.70;0.70;;;;;;;8.97;65.17;98540.50;4867898;29;20045;-79
2023/12/26 08:44:54;;;;;;;0.70;0.70;;;;;;;9.06;64.96;98538.16;4868122;29;20491;-79
2023/12/26 08:47:19;;;;;;;0.70;0.70;;;;;;;9.08;64.95;98541.75;4867896;29;20112;-79
2023/12/26 08:49:45;;;;;;;0.70;0.70;;;;;;;9.11;65.03;98555.16;4865608;29;20098;-78
2023/12/26 08:52:13;;;;;;;0.60;0.60;;;;;;;9.02;65.77;98557.53;4867553;29;20073;-78
2023/12/26 08:54:39;;;;;;;0.70;0.70;;;;;;;9.17;64.76;98555.34;4865975;29;20492;-79
2023/12/26 08:57:04;;;;;;;0.70;0.70;;;;;;;9.09;64.81;98564.84;4866924;29;20073;-79
2023/12/26 08:59:30;;;;;;;0.68;0.68;;;;;;;9.17;65.16;98560.66;4867680;29;21659;-79
2023/12/26 09:01:56;;;;;;;0.70;0.70;;;;;;;9.22;64.85;98560.81;4870070;29;20072;-79
2023/12/26 09:04:26;;;;;;;0.60;0.60;;;;;;;9.21;64.72;98561.69;4870554;29;20041;-79
2023/12/26 09:06:54;;;;;;;0.70;0.70;;;;;;;9.27;64.49;98569.84;4871011;29;20133;-78
2023/12/26 09:09:20;;;;;;;0.70;0.70;;;;;;;9.30;64.68;98574.38;4870210;29;20124;-78
2023/12/26 09:11:45;;;;;;;0.65;0.65;;;;;;;9.15;64.38;98574.78;4871441;29;20037;-79
2023/12/26 09:14:11;;;;;;;0.60;0.60;;;;;;;9.23;64.85;98579.50;4870546;29;20431;-78
2023/12/26 09:16:36;;;;;;;0.70;0.70;;;;;;;9.25;64.74;98580.47;4868753;29;20100;-78
2023/12/26 09:19:02;;;;;;;0.70;0.70;;;;;;;9.30;64.50;98588.59;4873910;29;20132;-79
2023/12/26 09:21:27;;;;;;;0.70;0.70;;;;;;;9.17;64.59;98595.28;4885058;29;20056;-78
2023/12/26 09:23:53;;;;;;;0.60;0.60;;;;;;;9.22;64.73;98601.66;4869055;29;20079;-79
2023/12/26 09:26:22;;;;;;;0.70;0.70;;;;;;;9.16;64.75;98598.78;4882900;29;20045;-79
2023/12/26 09:28:49;;;;;;;0.70;0.70;;;;;;;9.06;65.04;98604.69;4871788;29;20040;-79
2023/12/26 09:31:14;;;;;;;0.70;0.70;;;;;;;9.15;64.90;98604.03;4871746;29;20444;-80
2023/12/26 09:33:40;;;;;;;0.70;0.70;;;;;;;9.10;65.31;98621.63;4871992;29;20476;-78
2023/12/26 09:36:06;;;;;;;0.70;0.70;;;;;;;9.22;64.28;98617.63;4868706;29;20044;-78
2023/12/26 09:38:31;;;;;;;0.70;0.70;;;;;;;9.10;65.31;98617.25;4870239;29;20681;-78
2023/12/26 09:40:57;;;;;;;0.70;0.70;;;;;;;9.22;64.85;98614.06;4870167;29;20097;-79
2023/12/26 09:43:23;;;;;;;0.70;0.70;;;;;;;9.26;64.15;98621.28;4864107;29;20092;-78
2023/12/26 09:45:48;;;;;;;0.70;0.70;;;;;;;9.29;64.29;98624.03;4883810;29;20064;-79
2023/12/26 09:48:15;;;;;;;0.70;0.70;;;;;;;9.30;64.40;98625.88;4884182;29;20049;-79
2023/12/26 09:50:42;;;;;;;0.80;0.80;;;;;;;9.19;64.44;98629.91;4871796;29;20519;-78
2023/12/26 09:53:08;;;;;;;0.70;0.70;;;;;;;9.40;64.47;98635.97;4869018;29;20041;-79
2023/12/26 09:55:34;;;;;;;0.80;0.80;;;;;;;9.15;65.22;98633.31;4883972;29;20041;-78
2023/12/26 09:58:00;;;;;;;0.70;0.70;;;;;;;9.22;65.00;98636.25;4869616;29;20065;-79
2023/12/26 10:00:26;;;;;;;0.70;0.70;;;;;;;9.27;64.86;98636.41;4883719;29;20521;-78
2023/12/26 10:02:53;;;;;;;0.70;0.70;;;;;;;9.37;64.71;98646.50;4883926;29;20454;-79
2023/12/26 10:05:19;;;;;;;0.75;0.75;;;;;;;9.33;64.51;98652.56;4870919;29;20044;-80
2023/12/26 10:07:44;;;;;;;0.60;0.60;;;;;;;9.36;64.84;98642.03;4871813;29;20041;-79
2023/12/26 10:10:19;;;;;;;0.60;0.60;;;;;;;9.34;65.22;98651.75;4869192;29;20077;-79
2023/12/26 10:12:49;;;;;;;0.60;0.60;;;;;;;9.29;65.43;98652.41;4869485;29;20037;-80
2023/12/26 10:15:14;;;;;;;0.57;0.57;;;;;;;9.23;65.60;98648.69;4867517;29;20044;-79
2023/12/26 10:17:44;;;;;;;0.65;0.65;;;;;;;9.41;65.25;98653.72;4863757;29;20041;-80
2023/12/26 10:20:17;;;;;;;0.65;0.65;;;;;;;9.33;65.76;98657.91;4869359;29;20037;-79
2023/12/26 10:22:43;;;;;;;0.60;0.60;;;;;;;9.39;65.40;98646.53;4868592;29;20192;-79
2023/12/26 10:25:13;;;;;;;0.70;0.70;;;;;;;9.42;65.23;98642.22;4883738;29;20254;-79
2023/12/26 10:27:39;;;;;;;0.70;0.70;;;;;;;9.31;65.70;98638.31;4873577;29;20084;-79
2023/12/26 10:30:05;;;;;;;0.60;0.60;;;;;;;9.37;65.64;98642.94;4871096;29;20045;-80
2023/12/26 10:32:31;;;;;;;0.70;0.70;;;;;;;9.37;65.42;98630.53;4868867;29;20500;-79
2023/12/26 10:35:12;;;;;;;0.68;0.68;;;;;;;9.60;64.65;98633.00;4883743;29;20310;-81
2023/12/26 10:37:37;;;;;;;0.70;0.70;;;;;;;9.54;65.13;98643.50;4868668;29;20813;-79
2023/12/26 10:40:04;;;;;;;0.70;0.70;;;;;;;9.57;65.34;98636.47;4864064;29;20036;-81
2023/12/26 10:42:31;;;;;;;0.68;0.68;;;;;;;9.47;65.33;98637.03;4870106;29;20049;-80
2023/12/26 10:45:00;;;;;;;0.60;0.60;;;;;;;9.55;65.32;98637.31;4883942;29;20431;-81
2023/12/26 10:47:28;;;;;;;0.63;0.63;;;;;;;9.45;65.34;98645.00;4868989;29;20064;-81
2023/12/26 10:49:59;;;;;;;0.70;0.70;;;;;;;9.58;65.54;98643.63;4868916;29;20131;-81
2023/12/26 10:52:26;;;;;;;0.60;0.60;;;;;;;9.54;66.07;98648.81;4845731;29;20105;-81
2023/12/26 10:54:53;;;;;;;;;;;;;;;9.46;66.37;98648.56;4869316;29;20802;-81
2023/12/26 10:57:18;;;;;;;0.70;0.70;;;;;;;9.46;66.64;98646.78;4869860;29;19923;-81
2023/12/26 13:52:38;;;;;;;0.70;0.70;;;;;;;9.26;72.91;98722.44;4869998;29;20101;-83
2023/12/26 13:55:04;;;;;;;0.60;0.60;;;;;;;9.24;72.99;98724.13;4870588;29;20128;-83
2023/12/26 13:57:29;;;;;;;0.80;0.80;;;;;;;9.31;72.42;98725.28;4867999;29;20461;-86
2023/12/26 13:59:55;;;;;;;0.70;0.70;;;;;;;9.29;72.79;98722.53;4869593;29;20041;-85
2023/12/26 14:02:20;;;;;;;0.70;0.70;;;;;;;9.29;72.80;98717.22;4882205;29;20060;-85
2023/12/26 14:04:45;;;;;;;0.70;0.70;;;;;;;9.31;72.92;98719.94;4870062;29;20044;-85
2023/12/26 14:07:11;;;;;;;0.73;0.73;;;;;;;9.30;72.99;98713.72;4872194;29;20084;-82
2023/12/26 14:09:39;;;;;;;0.75;0.75;;;;;;;9.26;72.96;98711.81;4870881;29;20041;-84
2023/12/26 14:12:05;;;;;;;0.70;0.70;;;;;;;9.25;73.07;98721.56;4863807;29;20077;-83
2023/12/26 14:14:30;;;;;;;0.60;0.60;;;;;;;9.27;73.53;98728.69;4865758;29;20028;-82
2023/12/26 14:16:56;;;;;;;0.60;0.60;;;;;;;9.28;73.43;98728.72;4868961;29;20051;-81
2023/12/26 14:19:21;;;;;;;0.70;0.70;;;;;;;9.27;72.80;98734.91;4866229;29;20053;-82
2023/12/26 14:21:46;;;;;;;0.70;0.70;;;;;;;9.25;73.22;98726.88;4869946;29;20045;-82
2023/12/26 14:24:12;;;;;;;0.70;0.70;;;;;;;9.37;72.62;98742.34;4869037;29;20038;-81
2023/12/26 14:26:37;;;;;;;0.60;0.60;;;;;;;9.27;73.20;98734.91;4869325;29;20047;-81
2023/12/26 14:29:03;;;;;;;0.70;0.70;;;;;;;9.23;73.62;98749.84;4851367;29;20070;-81